createdAt,value
2022-12-10T00:03:49.959Z,75
2022-12-10T00:13:58.326Z,76
2022-12-10T00:24:06.451Z,77
2022-12-10T00:34:14.785Z,76
2022-12-10T00:44:23.086Z,76
2022-12-10T00:54:31.390Z,75
2022-12-10T01:04:39.449Z,74
2022-12-10T01:14:51.416Z,75
2022-12-10T01:25:00.327Z,74
2022-12-10T01:35:03.261Z,75
2022-12-10T01:45:07.586Z,76
2022-12-10T02:05:16.127Z,73
2022-12-10T02:15:24.387Z,72
2022-12-10T02:25:32.500Z,72
2022-12-10T02:35:40.558Z,70
2022-12-10T02:45:48.589Z,70
2022-12-10T02:55:56.810Z,70
2022-12-10T03:06:04.765Z,73
2022-12-10T03:16:13.572Z,74
2022-12-10T03:26:21.876Z,74
2022-12-10T03:36:29.996Z,75
2022-12-10T03:46:38.347Z,72
2022-12-10T03:56:39.376Z,74
2022-12-10T04:06:47.489Z,72
2022-12-10T04:16:55.450Z,73
2022-12-10T04:27:21.685Z,73
2022-12-10T04:37:08.422Z,76
2022-12-10T04:47:16.633Z,79
2022-12-10T04:57:24.693Z,79
2022-12-10T05:07:33.027Z,79
2022-12-10T05:17:41.495Z,79
2022-12-10T05:27:49.615Z,79
2022-12-10T05:37:57.632Z,78
2022-12-10T05:48:05.632Z,78
2022-12-10T05:58:14.802Z,79
2022-12-10T06:08:23.485Z,80
2022-12-10T06:18:32.635Z,80
2022-12-10T06:28:42.450Z,80
2022-12-10T06:48:44.466Z,80
2022-12-10T06:58:54.306Z,80
2022-12-10T07:08:52.933Z,80
2022-12-10T07:19:00.905Z,80
2022-12-10T07:29:09.053Z,80
2022-12-10T07:39:17.212Z,81
2022-12-10T07:49:25.062Z,80
2022-12-10T07:59:32.952Z,80
2022-12-10T08:09:41.436Z,80
2022-12-10T08:19:50.731Z,79
2022-12-10T08:29:59.080Z,79
2022-12-10T08:40:07.089Z,78
2022-12-10T08:50:15.865Z,78
2022-12-10T09:00:24.167Z,77
2022-12-10T09:10:33.657Z,77
2022-12-10T09:20:46.363Z,74
2022-12-10T09:30:45.027Z,72
2022-12-10T09:40:55.169Z,71
2022-12-10T09:51:04.944Z,69
2022-12-10T10:01:13.518Z,68
2022-12-10T10:11:23.083Z,66
2022-12-10T10:21:31.804Z,65
2022-12-10T10:31:45.430Z,64
2022-12-10T10:41:47.651Z,61
2022-12-10T10:51:46.774Z,58
2022-12-10T11:01:55.671Z,58
2022-12-10T11:12:06.944Z,54
2022-12-10T11:22:08.143Z,53
2022-12-10T11:32:12.754Z,53
2022-12-10T11:42:10.335Z,52
2022-12-10T11:52:10.413Z,52
2022-12-10T12:02:19.220Z,50
2022-12-10T12:12:32.150Z,50
2022-12-10T12:22:32.472Z,49
2022-12-10T12:32:33.331Z,46
2022-12-10T12:42:35.813Z,45
2022-12-10T12:52:36.484Z,47
2022-12-10T13:02:43.975Z,47
2022-12-10T13:12:52.431Z,46
2022-12-10T13:22:52.681Z,43
2022-12-10T13:33:01.274Z,44
2022-12-10T13:43:09.294Z,45
2022-12-10T13:53:18.692Z,43
2022-12-10T14:03:28.523Z,42
2022-12-10T14:13:36.712Z,39
2022-12-10T14:23:50.769Z,39
2022-12-10T14:33:55.061Z,39
2022-12-10T14:44:03.441Z,37
2022-12-10T14:54:11.506Z,37
2022-12-10T15:04:26.129Z,36
2022-12-10T15:14:27.518Z,36
2022-12-10T15:24:36.844Z,35
2022-12-10T15:34:49.831Z,35
2022-12-10T15:54:50.346Z,37
2022-12-10T16:04:58.890Z,35
2022-12-10T16:15:14.058Z,35
2022-12-10T16:25:12.694Z,33
2022-12-10T16:45:19.059Z,33
2022-12-10T17:05:20.899Z,35
2022-12-10T17:15:32.685Z,35
2022-12-10T17:25:33.556Z,35
2022-12-10T17:35:43.298Z,36
2022-12-10T17:45:43.960Z,36
2022-12-10T17:55:46.752Z,37
2022-12-10T18:05:51.460Z,37
2022-12-10T18:15:51.459Z,38
2022-12-10T18:26:01.171Z,36
2022-12-10T18:36:05.502Z,35
2022-12-10T18:46:14.233Z,36
2022-12-10T18:56:24.110Z,35
2022-12-10T19:06:30.048Z,34
2022-12-10T19:16:30.088Z,35
2022-12-10T19:26:38.528Z,34
2022-12-10T19:36:48.058Z,35
2022-12-10T19:46:57.422Z,35
2022-12-10T19:56:57.876Z,36
2022-12-10T20:07:06.216Z,36
2022-12-10T20:17:14.601Z,36
2022-12-10T20:27:25.341Z,37
2022-12-10T20:37:35.461Z,37
2022-12-10T20:47:38.326Z,37
2022-12-10T20:57:41.881Z,37
2022-12-10T21:07:50.178Z,37
2022-12-10T21:17:58.460Z,37
2022-12-10T21:28:08.631Z,37
2022-12-10T21:38:16.931Z,37
2022-12-10T21:48:27.504Z,37
2022-12-10T21:58:26.021Z,37
2022-12-10T22:08:35.097Z,37
2022-12-10T22:18:43.223Z,38
2022-12-10T22:28:43.770Z,38
2022-12-10T22:38:51.865Z,39
2022-12-10T22:49:01.298Z,40
2022-12-10T22:59:09.577Z,41
2022-12-10T23:09:19.546Z,42
2022-12-10T23:19:18.626Z,42
2022-12-10T23:29:26.614Z,42
2022-12-10T23:39:34.821Z,42
2022-12-10T23:49:43.016Z,43
2022-12-10T23:59:54.175Z,43
